createdAt,value
2023-04-09T00:00:16.783Z,7.55
2023-04-09T00:02:43.562Z,12.85
2023-04-09T00:05:10.334Z,11.95
2023-04-09T00:07:36.969Z,7.72
2023-04-09T00:10:03.745Z,8.75
2023-04-09T00:12:30.431Z,10.52
2023-04-09T00:14:57.760Z,10.88
2023-04-09T00:17:24.562Z,9.23
2023-04-09T00:19:51.443Z,9.57
2023-04-09T00:22:18.074Z,10.25
2023-04-09T00:24:44.715Z,11.80
2023-04-09T00:27:11.501Z,12.40
2023-04-09T00:29:38.152Z,12.88
2023-04-09T00:32:05.023Z,10.18
2023-04-09T00:34:32.171Z,15.88
2023-04-09T00:36:58.860Z,11.00
2023-04-09T00:39:25.733Z,11.90
2023-04-09T00:42:02.422Z,11.25
2023-04-09T00:44:29.354Z,11.68
2023-04-09T00:46:56.328Z,9.43
2023-04-09T00:49:24.868Z,9.77
2023-04-09T00:51:51.756Z,9.68
2023-04-09T00:54:19.178Z,13.20
2023-04-09T00:56:46.245Z,12.07
2023-04-09T00:59:13.235Z,14.80
2023-04-09T01:01:39.883Z,17.98
2023-04-09T01:04:07.029Z,13.82
2023-04-09T01:06:42.812Z,14.52
2023-04-09T01:09:28.604Z,16.08
2023-04-09T01:12:23.053Z,10.57
2023-04-09T01:15:08.766Z,11.20
2023-04-09T01:17:38.229Z,13.95
2023-04-09T01:20:18.647Z,11.35
2023-04-09T01:22:54.110Z,11.23
2023-04-09T01:25:48.349Z,11.57
2023-04-09T01:28:18.426Z,12.80
2023-04-09T01:30:49.411Z,15.57
2023-04-09T01:33:18.290Z,14.23
2023-04-09T01:35:47.458Z,13.85
2023-04-09T01:38:16.590Z,12.20
2023-04-09T01:40:43.760Z,11.82
2023-04-09T01:43:12.117Z,12.60
2023-04-09T01:45:40.338Z,15.55
2023-04-09T01:48:07.311Z,11.80
2023-04-09T01:50:34.076Z,12.63
2023-04-09T01:53:01.952Z,11.68
2023-04-09T01:55:28.568Z,13.15
2023-04-09T01:57:55.208Z,16.90
2023-04-09T02:00:22.157Z,14.27
2023-04-09T02:02:59.495Z,13.35
2023-04-09T02:05:31.417Z,11.32
2023-04-09T02:08:01.318Z,10.93
2023-04-09T02:10:31.997Z,14.38
2023-04-09T02:13:01.492Z,13.02
2023-04-09T02:15:29.209Z,10.25
2023-04-09T02:17:55.898Z,12.90
2023-04-09T02:20:22.819Z,14.05
2023-04-09T02:22:49.442Z,11.57
2023-04-09T02:25:16.108Z,13.30
2023-04-09T02:27:42.730Z,9.88
2023-04-09T02:30:09.742Z,12.15
2023-04-09T02:32:36.391Z,13.23
2023-04-09T02:35:03.598Z,11.90
2023-04-09T02:37:30.466Z,14.23
2023-04-09T02:39:58.265Z,11.93
2023-04-09T02:42:24.870Z,14.23
2023-04-09T02:44:51.469Z,14.13
2023-04-09T02:47:18.201Z,10.65
2023-04-09T02:49:44.922Z,12.55
2023-04-09T02:52:11.565Z,12.60
2023-04-09T02:54:38.230Z,9.48
2023-04-09T02:57:04.886Z,10.57
2023-04-09T02:59:33.007Z,12.95
2023-04-09T03:01:59.768Z,12.32
2023-04-09T03:04:26.543Z,11.38
2023-04-09T03:06:53.272Z,12.10
2023-04-09T03:09:19.884Z,10.30
2023-04-09T03:11:46.549Z,12.68
2023-04-09T03:14:13.137Z,13.30
2023-04-09T03:16:39.751Z,12.15
2023-04-09T03:19:06.381Z,13.23
2023-04-09T03:21:33.223Z,12.07
2023-04-09T03:23:59.886Z,13.98
2023-04-09T03:26:26.533Z,15.05
2023-04-09T03:28:53.385Z,11.18
2023-04-09T03:31:20.461Z,15.55
2023-04-09T03:33:47.170Z,11.98
2023-04-09T03:36:13.873Z,11.85
2023-04-09T03:38:40.646Z,12.98
2023-04-09T03:41:07.332Z,11.90
2023-04-09T03:43:33.942Z,14.50
2023-04-09T03:46:00.601Z,11.77
2023-04-09T03:48:27.313Z,13.18
2023-04-09T03:50:53.932Z,12.15
2023-04-09T03:53:20.714Z,12.65
2023-04-09T03:55:47.354Z,14.27
2023-04-09T03:58:14.019Z,12.52
2023-04-09T04:00:40.656Z,15.48
2023-04-09T04:03:07.474Z,16.27
2023-04-09T04:05:34.339Z,13.55
2023-04-09T04:08:00.956Z,14.80
2023-04-09T04:10:27.619Z,14.18
2023-04-09T04:12:54.315Z,12.93
2023-04-09T04:15:20.913Z,13.80
2023-04-09T04:17:47.633Z,12.27
2023-04-09T04:20:14.254Z,15.75
2023-04-09T04:22:40.858Z,17.58
2023-04-09T04:25:07.717Z,14.13
2023-04-09T04:27:34.359Z,19.20
2023-04-09T04:30:02.230Z,13.07
2023-04-09T04:32:29.240Z,12.60
2023-04-09T04:34:55.833Z,14.00
2023-04-09T04:37:22.477Z,16.23
2023-04-09T04:39:49.098Z,15.77
2023-04-09T04:42:16.900Z,16.10
2023-04-09T04:44:44.488Z,16.25
2023-04-09T04:47:11.960Z,14.73
2023-04-09T04:49:38.741Z,16.77
2023-04-09T04:52:06.811Z,14.13
2023-04-09T04:54:34.513Z,18.08
2023-04-09T04:57:01.656Z,17.20
2023-04-09T04:59:28.568Z,16.75
2023-04-09T05:01:55.395Z,14.70
2023-04-09T05:04:22.067Z,15.38
2023-04-09T05:06:48.696Z,14.88
2023-04-09T05:09:15.694Z,13.38
2023-04-09T05:11:42.300Z,15.38
2023-04-09T05:14:08.899Z,16.63
2023-04-09T05:16:36.245Z,16.23
2023-04-09T05:19:02.961Z,15.55
2023-04-09T05:21:29.565Z,20.48
2023-04-09T05:23:56.386Z,21.48
2023-04-09T05:26:23.126Z,16.70
2023-04-09T05:28:50.113Z,22.05
2023-04-09T05:31:16.897Z,24.92
2023-04-09T05:33:43.744Z,20.60
2023-04-09T05:36:16.827Z,22.23
2023-04-09T05:38:44.572Z,22.23
2023-04-09T05:41:11.473Z,22.75
2023-04-09T05:43:38.108Z,19.98
2023-04-09T05:46:04.968Z,21.10
2023-04-09T05:48:31.701Z,24.20
2023-04-09T05:51:00.352Z,24.02
2023-04-09T05:53:27.640Z,27.20
2023-04-09T05:55:54.246Z,24.80
2023-04-09T05:58:21.302Z,25.95
2023-04-09T06:00:47.954Z,28.08
2023-04-09T06:03:14.774Z,26.30
2023-04-09T06:05:41.528Z,33.10
2023-04-09T06:08:08.192Z,35.40
2023-04-09T06:10:34.790Z,41.65
2023-04-09T06:13:01.406Z,40.78
2023-04-09T06:15:28.337Z,43.00
2023-04-09T06:17:55.984Z,48.85
2023-04-09T06:20:24.170Z,49.22
2023-04-09T06:22:50.762Z,45.65
2023-04-09T06:25:17.430Z,50.75
2023-04-09T06:27:44.024Z,45.40
2023-04-09T06:30:11.157Z,48.35
2023-04-09T06:32:46.957Z,54.38
2023-04-09T06:35:18.312Z,52.33
2023-04-09T06:37:44.938Z,48.85
2023-04-09T06:40:12.322Z,49.00
2023-04-09T06:42:38.939Z,44.55
2023-04-09T06:45:09.021Z,43.92
2023-04-09T06:47:36.524Z,49.45
2023-04-09T06:50:04.241Z,55.13
2023-04-09T06:52:31.052Z,50.60
2023-04-09T06:54:57.729Z,46.63
2023-04-09T06:57:24.386Z,57.22
2023-04-09T06:59:51.357Z,46.55
2023-04-09T07:02:18.164Z,47.10
2023-04-09T07:04:45.180Z,40.97
2023-04-09T07:07:12.780Z,45.67
2023-04-09T07:09:39.624Z,42.35
2023-04-09T07:12:06.495Z,34.08
2023-04-09T07:14:33.172Z,39.70
2023-04-09T07:16:59.897Z,41.95
2023-04-09T07:19:26.959Z,39.50
2023-04-09T07:21:53.605Z,38.22
2023-04-09T07:24:20.352Z,33.28
2023-04-09T07:26:46.942Z,39.33
2023-04-09T07:29:13.570Z,35.00
2023-04-09T07:31:40.400Z,33.33
2023-04-09T07:34:07.136Z,38.72
2023-04-09T07:36:33.741Z,39.53
2023-04-09T07:39:00.332Z,34.38
2023-04-09T07:41:26.997Z,36.55
2023-04-09T07:43:53.658Z,42.72
2023-04-09T07:46:21.860Z,33.38
2023-04-09T07:48:50.296Z,34.30
2023-04-09T07:51:17.226Z,37.33
2023-04-09T07:53:43.806Z,36.75
2023-04-09T07:56:10.416Z,28.25
2023-04-09T07:58:38.184Z,31.35
2023-04-09T08:01:05.047Z,38.22
2023-04-09T08:03:32.101Z,30.40
2023-04-09T08:05:58.874Z,33.63
2023-04-09T08:08:25.457Z,32.70
2023-04-09T08:10:52.241Z,32.13
2023-04-09T08:13:18.874Z,34.90
2023-04-09T08:15:45.490Z,38.22
2023-04-09T08:18:12.160Z,26.75
2023-04-09T08:20:45.021Z,29.10
2023-04-09T08:23:12.444Z,29.77
2023-04-09T08:25:39.092Z,33.53
2023-04-09T08:28:06.497Z,28.60
2023-04-09T08:30:34.369Z,31.40
2023-04-09T08:33:02.121Z,30.67
2023-04-09T08:35:31.337Z,30.17
2023-04-09T08:37:59.017Z,33.95
2023-04-09T08:40:25.903Z,27.52
2023-04-09T08:42:56.860Z,33.05
2023-04-09T08:45:24.276Z,31.05
2023-04-09T08:47:52.100Z,31.33
2023-04-09T08:50:19.773Z,31.05
2023-04-09T08:52:48.460Z,29.45
2023-04-09T08:55:15.131Z,29.17
2023-04-09T08:57:42.533Z,30.90
2023-04-09T09:00:09.829Z,28.08
2023-04-09T09:02:36.820Z,27.63
2023-04-09T09:05:03.576Z,30.85
2023-04-09T09:07:31.427Z,27.58
2023-04-09T09:10:04.877Z,24.88
2023-04-09T09:12:32.440Z,28.08
2023-04-09T09:14:59.144Z,34.25
2023-04-09T09:17:26.782Z,26.15
2023-04-09T09:19:54.075Z,26.63
2023-04-09T09:22:20.757Z,24.55
2023-04-09T09:24:51.817Z,24.00
2023-04-09T09:27:33.481Z,24.05
2023-04-09T09:30:01.486Z,25.73
2023-04-09T09:32:28.200Z,26.88
2023-04-09T09:35:06.190Z,28.52
2023-04-09T09:37:33.880Z,24.58
2023-04-09T09:40:01.394Z,27.40
2023-04-09T09:42:28.146Z,22.83
2023-04-09T09:44:55.416Z,23.25
2023-04-09T09:47:23.245Z,24.60
2023-04-09T09:49:51.055Z,27.85
2023-04-09T09:52:28.728Z,27.20
2023-04-09T09:54:58.880Z,27.30
2023-04-09T09:57:28.967Z,23.48
2023-04-09T10:00:04.245Z,29.15
2023-04-09T10:02:39.765Z,23.75
2023-04-09T10:05:08.801Z,23.60
2023-04-09T10:07:37.468Z,23.30
2023-04-09T10:10:06.207Z,25.90
2023-04-09T10:12:34.087Z,26.92
2023-04-09T10:15:04.724Z,25.05
2023-04-09T10:17:32.481Z,22.40
2023-04-09T10:20:19.714Z,21.23
2023-04-09T10:22:49.962Z,20.27
2023-04-09T10:25:17.765Z,25.48
2023-04-09T10:27:49.270Z,20.17
2023-04-09T10:30:36.740Z,23.27
2023-04-09T10:33:29.943Z,22.73
2023-04-09T10:36:03.142Z,26.58
2023-04-09T10:38:48.848Z,25.73
2023-04-09T10:41:28.752Z,27.27
2023-04-09T10:43:58.024Z,24.13
2023-04-09T10:46:30.609Z,25.02
2023-04-09T10:49:10.682Z,22.75
2023-04-09T10:51:39.215Z,25.98
2023-04-09T10:54:33.635Z,24.73
2023-04-09T10:57:23.631Z,22.60
2023-04-09T10:59:52.868Z,23.17
2023-04-09T11:02:39.076Z,22.67
2023-04-09T11:05:18.061Z,28.25
2023-04-09T11:07:48.956Z,26.58
2023-04-09T11:10:15.682Z,28.30
2023-04-09T11:12:43.366Z,23.52
2023-04-09T11:15:22.918Z,22.52
2023-04-09T11:17:55.836Z,21.10
2023-04-09T11:20:24.932Z,22.70
2023-04-09T11:22:53.472Z,25.42
2023-04-09T11:25:28.342Z,22.75
2023-04-09T11:27:55.320Z,22.13
2023-04-09T11:30:22.075Z,21.67
2023-04-09T11:32:50.695Z,22.73
2023-04-09T11:35:22.384Z,21.33
2023-04-09T11:37:50.264Z,22.23
2023-04-09T11:40:27.046Z,16.83
2023-04-09T11:42:55.506Z,18.88
2023-04-09T11:45:30.049Z,21.45
2023-04-09T11:47:57.964Z,19.45
2023-04-09T11:50:25.744Z,21.25
2023-04-09T11:52:52.670Z,16.13
2023-04-09T11:55:29.761Z,21.95
2023-04-09T11:58:01.260Z,20.80
2023-04-09T12:00:29.065Z,20.30
2023-04-09T12:03:03.179Z,19.30
2023-04-09T12:05:32.602Z,21.60
2023-04-09T12:08:06.994Z,19.70
2023-04-09T12:10:38.799Z,21.00
2023-04-09T12:13:13.781Z,16.58
2023-04-09T12:15:43.489Z,16.35
2023-04-09T12:18:12.167Z,17.05
2023-04-09T12:20:39.915Z,16.58
2023-04-09T12:23:07.966Z,17.48
2023-04-09T12:25:36.906Z,23.90
2023-04-09T12:28:05.749Z,20.80
2023-04-09T12:30:33.607Z,18.92
2023-04-09T12:33:00.439Z,18.10
2023-04-09T12:35:27.301Z,15.70
2023-04-09T12:37:54.410Z,19.80
2023-04-09T12:40:21.923Z,17.42
2023-04-09T12:42:48.679Z,20.95
2023-04-09T12:45:17.100Z,16.55
2023-04-09T12:47:44.569Z,19.30
2023-04-09T12:50:13.138Z,21.52
2023-04-09T12:52:39.870Z,19.38
2023-04-09T12:55:07.558Z,19.92
2023-04-09T12:57:34.722Z,17.65
2023-04-09T13:00:01.420Z,21.98
2023-04-09T13:02:28.442Z,16.75
2023-04-09T13:04:55.447Z,17.63
2023-04-09T13:07:22.810Z,17.10
2023-04-09T13:09:52.634Z,18.80
2023-04-09T13:12:21.567Z,18.30
2023-04-09T13:14:48.716Z,19.02
2023-04-09T13:17:16.158Z,19.85
2023-04-09T13:19:43.052Z,18.55
2023-04-09T13:22:10.537Z,17.85
2023-04-09T13:24:38.380Z,18.67
2023-04-09T13:27:06.135Z,19.27
2023-04-09T13:29:32.758Z,19.17
2023-04-09T13:32:01.801Z,15.23
2023-04-09T13:34:28.692Z,16.13
2023-04-09T13:36:55.395Z,18.17
2023-04-09T13:39:22.013Z,20.17
2023-04-09T13:41:49.097Z,19.17
2023-04-09T13:44:15.838Z,18.50
2023-04-09T13:46:42.560Z,18.13
2023-04-09T13:49:09.232Z,17.83
2023-04-09T13:51:36.068Z,15.98
2023-04-09T13:54:05.327Z,24.35
2023-04-09T13:56:32.917Z,21.20
2023-04-09T13:59:00.979Z,18.05
2023-04-09T14:01:28.078Z,16.70
2023-04-09T14:03:54.997Z,18.48
2023-04-09T14:06:21.965Z,16.08
2023-04-09T14:08:49.207Z,14.50
2023-04-09T14:11:16.826Z,16.15
2023-04-09T14:13:43.550Z,18.10
2023-04-09T14:16:10.377Z,16.13
2023-04-09T14:18:37.887Z,14.65
2023-04-09T14:21:04.814Z,18.08
2023-04-09T14:23:31.495Z,12.68
2023-04-09T14:25:58.179Z,17.30
2023-04-09T14:28:24.848Z,18.10
2023-04-09T14:30:51.514Z,14.52
2023-04-09T14:33:18.176Z,17.83
2023-04-09T14:35:44.890Z,13.48
2023-04-09T14:38:11.577Z,12.40
2023-04-09T14:40:38.235Z,9.57
2023-04-09T14:43:04.907Z,12.02
2023-04-09T14:45:32.853Z,10.20
2023-04-09T14:47:59.665Z,13.45
2023-04-09T14:50:26.507Z,10.80
2023-04-09T14:52:53.261Z,12.52
2023-04-09T14:55:19.982Z,11.93
2023-04-09T14:57:46.778Z,11.25
2023-04-09T15:00:13.771Z,10.27
2023-04-09T15:02:41.485Z,12.52
2023-04-09T15:05:08.835Z,10.35
2023-04-09T15:07:35.813Z,8.93
2023-04-09T15:10:02.916Z,11.88
2023-04-09T15:12:31.736Z,13.77
2023-04-09T15:14:58.933Z,10.63
2023-04-09T15:17:26.534Z,11.27
2023-04-09T15:19:54.348Z,11.32
2023-04-09T15:22:21.546Z,12.98
2023-04-09T15:24:48.142Z,14.07
2023-04-09T15:27:14.817Z,10.30
2023-04-09T15:29:41.490Z,9.77
2023-04-09T15:32:08.228Z,9.65
2023-04-09T15:34:34.961Z,9.20
2023-04-09T15:37:01.655Z,7.40
2023-04-09T15:39:28.864Z,10.68
2023-04-09T15:41:58.769Z,10.88
2023-04-09T15:44:26.397Z,6.70
2023-04-09T15:46:53.842Z,10.60
2023-04-09T15:49:21.126Z,9.73
2023-04-09T15:51:48.474Z,8.63
2023-04-09T15:54:15.088Z,7.50
2023-04-09T15:56:42.273Z,13.32
2023-04-09T15:59:08.984Z,9.85
2023-04-09T16:01:36.756Z,9.57
2023-04-09T16:04:04.869Z,10.43
2023-04-09T16:06:31.622Z,8.30
2023-04-09T16:08:58.387Z,6.88
2023-04-09T16:11:25.097Z,8.88
2023-04-09T16:13:52.453Z,7.60
2023-04-09T16:16:20.924Z,6.45
2023-04-09T16:18:47.753Z,6.88
2023-04-09T16:21:14.371Z,9.50
2023-04-09T16:23:41.569Z,11.13
2023-04-09T16:26:08.243Z,8.20
2023-04-09T16:28:34.889Z,5.78
2023-04-09T16:31:01.671Z,7.22
2023-04-09T16:33:32.272Z,10.02
2023-04-09T16:35:59.077Z,8.05
2023-04-09T16:38:27.576Z,5.18
2023-04-09T16:40:54.289Z,9.00
2023-04-09T16:43:20.919Z,9.02
2023-04-09T16:45:47.644Z,4.75
2023-04-09T16:48:16.161Z,5.53
2023-04-09T16:50:43.090Z,6.07
2023-04-09T16:53:09.843Z,7.47
2023-04-09T16:55:36.629Z,5.35
2023-04-09T16:58:03.407Z,8.27
2023-04-09T17:00:30.104Z,6.30
2023-04-09T17:02:57.912Z,5.38
2023-04-09T17:05:24.894Z,6.43
2023-04-09T17:07:52.467Z,4.95
2023-04-09T17:10:19.960Z,3.72
2023-04-09T17:12:47.360Z,5.25
2023-04-09T17:15:14.436Z,5.10
2023-04-09T17:17:43.640Z,4.85
2023-04-09T17:20:10.782Z,5.90
2023-04-09T17:22:38.295Z,4.60
2023-04-09T17:25:05.191Z,4.28
2023-04-09T17:27:33.888Z,7.82
2023-04-09T17:30:00.612Z,6.03
2023-04-09T17:32:27.684Z,5.38
2023-04-09T17:34:54.459Z,7.20
2023-04-09T17:39:48.042Z,4.25
2023-04-09T17:42:14.721Z,3.45
2023-04-09T17:44:43.754Z,5.15
2023-04-09T17:47:11.830Z,6.75
2023-04-09T17:49:39.310Z,5.65
2023-04-09T17:52:06.039Z,3.88
2023-04-09T17:54:35.793Z,5.28
2023-04-09T17:57:04.273Z,6.63
2023-04-09T17:59:32.330Z,5.85
2023-04-09T18:01:59.313Z,5.53
2023-04-09T18:04:27.163Z,6.47
2023-04-09T18:06:54.671Z,3.30
2023-04-09T18:09:22.596Z,6.03
2023-04-09T18:11:53.554Z,4.57
2023-04-09T18:14:20.317Z,5.15
2023-04-09T18:16:47.342Z,5.68
2023-04-09T18:19:14.235Z,4.90
2023-04-09T18:21:41.122Z,3.78
2023-04-09T18:24:08.575Z,5.72
2023-04-09T18:26:35.317Z,4.22
2023-04-09T18:29:02.020Z,7.03
2023-04-09T18:31:28.935Z,5.55
2023-04-09T18:33:56.160Z,7.20
2023-04-09T18:36:22.888Z,4.45
2023-04-09T18:38:49.504Z,8.85
2023-04-09T18:41:26.815Z,4.45
2023-04-09T18:43:54.019Z,6.18
2023-04-09T18:46:20.666Z,5.30
2023-04-09T18:48:47.462Z,8.77
2023-04-09T18:51:14.643Z,5.97
2023-04-09T18:53:41.970Z,5.75
2023-04-09T18:56:08.961Z,5.38
2023-04-09T18:58:36.354Z,4.78
2023-04-09T19:01:12.824Z,7.20
2023-04-09T19:03:40.573Z,6.90
2023-04-09T19:06:15.047Z,8.82
2023-04-09T19:08:41.849Z,7.38
2023-04-09T19:11:08.540Z,6.53
2023-04-09T19:13:37.008Z,8.00
2023-04-09T19:16:04.264Z,6.93
2023-04-09T19:18:32.020Z,6.90
2023-04-09T19:20:58.659Z,7.38
2023-04-09T19:23:26.302Z,11.88
2023-04-09T19:25:56.630Z,10.27
2023-04-09T19:28:24.210Z,10.05
2023-04-09T19:30:54.393Z,8.10
2023-04-09T19:33:22.357Z,10.20
2023-04-09T19:35:49.525Z,12.05
2023-04-09T19:38:16.793Z,9.10
2023-04-09T19:40:44.127Z,9.15
2023-04-09T19:43:11.285Z,8.45
2023-04-09T19:45:39.089Z,12.65
2023-04-09T19:48:07.254Z,8.90
2023-04-09T19:50:38.914Z,11.02
2023-04-09T19:53:06.212Z,9.40
2023-04-09T19:55:35.953Z,8.70
2023-04-09T19:58:03.184Z,10.65
2023-04-09T20:00:29.815Z,10.30
2023-04-09T20:02:57.211Z,10.80
2023-04-09T20:05:24.275Z,10.05
2023-04-09T20:07:52.749Z,7.30
2023-04-09T20:10:19.862Z,8.65
2023-04-09T20:12:50.578Z,9.57
2023-04-09T20:15:20.084Z,12.88
2023-04-09T20:17:50.920Z,9.32
2023-04-09T20:20:20.784Z,11.05
2023-04-09T20:22:55.616Z,11.45
2023-04-09T20:25:23.144Z,15.43
2023-04-09T20:27:52.409Z,9.52
2023-04-09T20:30:19.148Z,12.55
2023-04-09T20:32:45.851Z,12.30
2023-04-09T20:35:14.212Z,13.52
2023-04-09T20:37:41.150Z,12.38
2023-04-09T20:40:08.342Z,11.45
2023-04-09T20:42:34.988Z,11.45
2023-04-09T20:45:02.078Z,9.45
2023-04-09T20:47:29.412Z,11.07
2023-04-09T20:49:59.875Z,15.43
2023-04-09T20:52:30.610Z,13.05
2023-04-09T20:54:58.646Z,15.20
2023-04-09T20:57:25.258Z,13.48
2023-04-09T20:59:53.805Z,12.25
2023-04-09T21:02:21.174Z,10.43
2023-04-09T21:04:47.958Z,13.73
2023-04-09T21:07:14.618Z,12.63
2023-04-09T21:09:41.577Z,12.60
2023-04-09T21:12:08.368Z,13.73
2023-04-09T21:14:35.655Z,12.32
2023-04-09T21:17:02.539Z,11.52
2023-04-09T21:19:29.477Z,11.95
2023-04-09T21:22:02.713Z,15.07
2023-04-09T21:24:31.203Z,14.02
2023-04-09T21:26:58.869Z,13.75
2023-04-09T21:29:25.538Z,10.50
2023-04-09T21:31:52.201Z,9.88
2023-04-09T21:34:18.862Z,18.15
2023-04-09T21:36:46.319Z,8.05
2023-04-09T21:39:13.126Z,16.80
2023-04-09T21:41:39.841Z,12.65
2023-04-09T21:44:08.677Z,11.38
2023-04-09T21:46:37.143Z,16.92
2023-04-09T21:49:04.520Z,11.68
2023-04-09T21:51:32.079Z,19.30
2023-04-09T21:54:16.989Z,11.73
2023-04-09T21:56:43.609Z,15.43
2023-04-09T21:59:10.231Z,10.55
2023-04-09T22:01:37.015Z,11.38
2023-04-09T22:04:04.130Z,10.93
2023-04-09T22:06:31.188Z,14.25
2023-04-09T22:08:58.359Z,13.32
2023-04-09T22:11:27.837Z,12.82
2023-04-09T22:13:57.040Z,11.40
2023-04-09T22:16:24.691Z,11.85
2023-04-09T22:18:52.681Z,12.05
2023-04-09T22:21:19.519Z,13.32
2023-04-09T22:23:46.105Z,10.05
2023-04-09T22:26:13.125Z,13.95
2023-04-09T22:28:40.070Z,11.50
2023-04-09T22:31:07.248Z,12.00
2023-04-09T22:33:33.989Z,13.27
2023-04-09T22:36:00.718Z,16.92
2023-04-09T22:38:27.679Z,13.80
2023-04-09T22:40:54.358Z,13.65
2023-04-09T22:43:20.994Z,14.80
2023-04-09T22:45:52.407Z,12.75
2023-04-09T22:48:19.977Z,12.90
2023-04-09T22:50:47.753Z,11.98
2023-04-09T22:53:18.696Z,13.23
2023-04-09T22:55:47.538Z,16.17
2023-04-09T22:58:14.660Z,15.00
2023-04-09T23:00:41.624Z,15.32
2023-04-09T23:03:08.529Z,13.60
2023-04-09T23:05:35.603Z,16.23
2023-04-09T23:08:02.576Z,14.38
2023-04-09T23:10:29.293Z,17.13
2023-04-09T23:12:57.280Z,21.08
2023-04-09T23:15:23.953Z,14.75
2023-04-09T23:17:51.894Z,14.75
2023-04-09T23:20:18.693Z,22.17
2023-04-09T23:22:48.611Z,17.45
2023-04-09T23:25:16.135Z,20.05
2023-04-09T23:27:43.655Z,12.93
2023-04-09T23:30:10.809Z,16.73
2023-04-09T23:32:37.520Z,14.63
2023-04-09T23:35:04.600Z,19.13
2023-04-09T23:37:31.739Z,21.83
2023-04-09T23:39:58.408Z,21.00
2023-04-09T23:42:26.432Z,17.52
2023-04-09T23:45:25.424Z,21.20
2023-04-09T23:47:52.976Z,19.83
2023-04-09T23:50:19.833Z,16.73
2023-04-09T23:52:48.579Z,16.52
2023-04-09T23:55:15.795Z,18.13
2023-04-09T23:57:43.657Z,21.27
